createdAt,value
2019-01-18T00:02:41.469Z,0.90
2019-01-18T00:07:26.349Z,0.80
2019-01-18T00:12:11.018Z,0.80
2019-01-18T00:16:56.616Z,0.70
2019-01-18T00:21:41.351Z,0.70
2019-01-18T00:26:25.963Z,0.70
2019-01-18T00:31:10.775Z,0.80
2019-01-18T00:35:55.542Z,0.90
2019-01-18T00:40:40.394Z,1.00
2019-01-18T00:45:25.155Z,1.10
2019-01-18T00:50:12.431Z,1.00
2019-01-18T00:54:57.099Z,1.10
2019-01-18T00:59:44.671Z,1.10
2019-01-18T01:04:32.417Z,1.10
2019-01-18T01:09:18.881Z,1.10
2019-01-18T01:14:05.543Z,1.10
2019-01-18T01:18:50.227Z,1.10
2019-01-18T01:23:34.933Z,1.10
2019-01-18T01:28:23.175Z,1.10
2019-01-18T01:33:09.627Z,1.10
2019-01-18T01:37:54.573Z,1.10
2019-01-18T01:42:39.259Z,1.10
2019-01-18T01:47:23.929Z,1.00
2019-01-18T01:52:08.536Z,1.00
2019-01-18T01:56:53.087Z,1.00
2019-01-18T02:01:37.633Z,0.80
2019-01-18T02:06:22.554Z,0.70
2019-01-18T02:11:07.358Z,0.60
2019-01-18T02:15:52.116Z,0.50
2019-01-18T02:20:36.842Z,0.50
2019-01-18T02:25:21.924Z,0.60
2019-01-18T02:30:13.513Z,0.70
2019-01-18T02:34:58.196Z,0.80
2019-01-18T02:39:43.877Z,0.80
2019-01-18T02:44:28.730Z,0.80
2019-01-18T02:49:13.493Z,0.80
2019-01-18T02:54:00.273Z,0.80
2019-01-18T02:58:44.824Z,0.70
2019-01-18T03:03:32.242Z,0.60
2019-01-18T03:08:16.949Z,0.60
2019-01-18T03:13:01.675Z,0.60
2019-01-18T03:17:55.026Z,0.70
2019-01-18T03:22:40.006Z,0.60
2019-01-18T03:27:24.859Z,0.60
2019-01-18T03:32:09.492Z,0.50
2019-01-18T03:36:54.301Z,0.50
2019-01-18T03:41:39.859Z,0.40
2019-01-18T03:46:26.216Z,0.40
2019-01-18T03:51:41.081Z,0.30
2019-01-18T03:55:57.333Z,0.20
2019-01-18T04:00:42.083Z,0.20
2019-01-18T04:05:27.024Z,0.20
2019-01-18T04:10:13.800Z,0.30
2019-01-18T04:14:58.499Z,0.40
2019-01-18T04:19:43.403Z,0.50
2019-01-18T04:24:30.494Z,0.50
2019-01-18T04:29:15.277Z,0.60
2019-01-18T04:33:59.975Z,0.60
2019-01-18T04:38:44.652Z,0.60
2019-01-18T04:43:29.328Z,0.60
2019-01-18T04:48:13.895Z,0.60
2019-01-18T04:52:58.578Z,0.30
2019-01-18T04:57:43.185Z,0.10
2019-01-18T05:02:28.835Z,-0.10
2019-01-18T05:07:13.369Z,0.10
2019-01-18T05:11:58.303Z,0.20
2019-01-18T05:16:42.846Z,0.30
2019-01-18T05:21:27.423Z,0.20
2019-01-18T05:26:26.146Z,-0.10
2019-01-18T05:31:17.020Z,-0.40
2019-01-18T05:36:04.859Z,-0.50
2019-01-18T05:40:55.777Z,-0.40
2019-01-18T05:45:37.592Z,-0.60
2019-01-18T05:50:27.217Z,-0.80
2019-01-18T05:55:12.062Z,-1.00
2019-01-18T05:59:56.729Z,-1.10
2019-01-18T06:04:42.731Z,-1.10
2019-01-18T06:09:58.564Z,-1.00
2019-01-18T06:14:45.121Z,-1.00
2019-01-18T06:19:29.808Z,-0.90
2019-01-18T06:24:14.424Z,-0.80
2019-01-18T06:28:59.333Z,-0.80
2019-01-18T06:33:44.113Z,-0.80
2019-01-18T06:38:28.771Z,-0.90
2019-01-18T06:43:13.382Z,-0.80
2019-01-18T06:47:58.190Z,-1.00
2019-01-18T06:52:43.096Z,-0.90
2019-01-18T06:57:27.769Z,-0.90
2019-01-18T07:02:12.555Z,-0.90
2019-01-18T07:06:57.230Z,-1.00
2019-01-18T07:11:42.219Z,-0.90
2019-01-18T07:16:26.861Z,-1.00
2019-01-18T07:21:11.411Z,-1.10
2019-01-18T07:25:55.982Z,-1.10
2019-01-18T07:30:43.675Z,-1.10
2019-01-18T07:35:31.205Z,-1.20
2019-01-18T07:40:16.024Z,-1.10
2019-01-18T07:45:00.632Z,-1.10
2019-01-18T07:49:45.213Z,-1.00
2019-01-18T07:54:30.102Z,-0.90
2019-01-18T07:59:14.774Z,-0.90
2019-01-18T08:03:59.347Z,-0.90
2019-01-18T08:08:44.778Z,-0.90
2019-01-18T08:13:29.410Z,-0.80
2019-01-18T08:18:14.634Z,-0.90
2019-01-18T08:23:02.636Z,-0.90
2019-01-18T08:27:47.326Z,-0.90
2019-01-18T08:32:31.982Z,-0.90
2019-01-18T08:37:17.385Z,-0.80
2019-01-18T08:42:05.170Z,-0.90
2019-01-18T08:46:50.055Z,-1.00
2019-01-18T08:51:34.688Z,-1.10
2019-01-18T08:56:27.505Z,-1.10
2019-01-18T09:01:12.361Z,-1.00
2019-01-18T09:05:59.698Z,-0.90
2019-01-18T09:10:47.246Z,-0.90
2019-01-18T09:15:34.666Z,-0.90
2019-01-18T09:20:21.252Z,-0.80
2019-01-18T09:25:06.708Z,-0.90
2019-01-18T09:29:53.332Z,-1.00
2019-01-18T09:34:39.369Z,-0.90
2019-01-18T09:39:24.008Z,-1.00
2019-01-18T09:44:08.546Z,-1.10
2019-01-18T09:48:53.115Z,-1.00
2019-01-18T09:53:37.612Z,-0.90
2019-01-18T09:58:22.366Z,-0.80
2019-01-18T10:03:07.346Z,-0.70
2019-01-18T10:07:52.146Z,-0.70
2019-01-18T10:12:37.518Z,-0.60
2019-01-18T10:17:25.428Z,-0.50
2019-01-18T10:22:13.565Z,-0.50
2019-01-18T10:26:58.115Z,-0.30
2019-01-18T10:31:42.694Z,-0.40
2019-01-18T10:36:30.342Z,-0.30
2019-01-18T10:41:17.040Z,-0.40
2019-01-18T10:46:01.242Z,-0.60
2019-01-18T10:50:45.840Z,-0.70
2019-01-18T10:55:34.163Z,-0.70
2019-01-18T11:00:25.327Z,-0.80
2019-01-18T11:05:11.330Z,-0.60
2019-01-18T11:09:58.504Z,-0.70
2019-01-18T11:14:43.764Z,-0.70
2019-01-18T11:19:28.708Z,-0.40
2019-01-18T11:24:13.328Z,-0.30
2019-01-18T11:28:58.093Z,-0.20
2019-01-18T11:33:42.885Z,-0.50
2019-01-18T11:38:27.522Z,-0.70
2019-01-18T11:43:12.137Z,-0.80
2019-01-18T11:47:56.756Z,-0.60
2019-01-18T11:52:41.486Z,-0.50
2019-01-18T11:57:26.123Z,-0.40
2019-01-18T12:02:15.168Z,-0.10
2019-01-18T12:06:59.201Z,-0.20
2019-01-18T12:11:43.880Z,-0.10
2019-01-18T12:16:28.679Z,-0.30
2019-01-18T12:21:13.278Z,-0.30
2019-01-18T12:25:58.059Z,-0.40
2019-01-18T12:30:42.626Z,-0.30
2019-01-18T12:35:27.563Z,-0.10
2019-01-18T12:40:12.370Z,-0.10
2019-01-18T12:44:57.085Z,0.00
2019-01-18T12:49:41.703Z,0.10
2019-01-18T12:54:26.277Z,0.30
2019-01-18T12:59:10.995Z,0.40
2019-01-18T13:03:55.720Z,0.50
2019-01-18T13:08:40.432Z,0.20
2019-01-18T13:13:25.066Z,0.20
2019-01-18T13:18:09.709Z,0.40
2019-01-18T13:22:54.328Z,0.30
2019-01-18T13:27:38.934Z,0.00
2019-01-18T13:32:23.916Z,-0.10
2019-01-18T13:37:08.487Z,-0.30
2019-01-18T13:41:53.059Z,-0.40
2019-01-18T13:46:37.685Z,-0.60
2019-01-18T13:51:22.328Z,-0.80
2019-01-18T13:56:06.848Z,-0.80
2019-01-18T14:00:51.601Z,-0.80
2019-01-18T14:05:36.326Z,-0.70
2019-01-18T14:10:23.553Z,-0.80
2019-01-18T14:15:09.695Z,-0.90
2019-01-18T14:19:57.241Z,-1.10
2019-01-18T14:24:42.196Z,-1.10
2019-01-18T14:29:26.904Z,-1.20
2019-01-18T14:34:14.148Z,-1.10
2019-01-18T14:39:01.060Z,-1.20
2019-01-18T14:43:46.233Z,-1.30
2019-01-18T14:48:31.026Z,-1.40
2019-01-18T14:53:15.667Z,-1.50
2019-01-18T14:58:00.372Z,-1.50
2019-01-18T15:02:45.228Z,-1.60
2019-01-18T15:07:29.897Z,-1.60
2019-01-18T15:12:16.415Z,-1.80
2019-01-18T15:17:00.898Z,-1.80
2019-01-18T15:21:48.973Z,-1.90
2019-01-18T15:26:33.687Z,-1.90
2019-01-18T15:31:18.310Z,-2.10
2019-01-18T15:36:02.783Z,-2.20
2019-01-18T15:40:48.893Z,-2.30
2019-01-18T15:45:33.745Z,-2.40
2019-01-18T15:50:21.341Z,-2.50
2019-01-18T15:55:07.184Z,-2.60
2019-01-18T15:59:51.702Z,-2.70
2019-01-18T16:04:36.268Z,-2.80
2019-01-18T16:09:20.946Z,-2.80
2019-01-18T16:14:05.676Z,-2.80
2019-01-18T16:18:50.378Z,-2.90
2019-01-18T16:23:34.934Z,-3.00
2019-01-18T16:28:19.525Z,-2.90
2019-01-18T16:33:04.198Z,-2.90
2019-01-18T16:37:49.861Z,-3.00
2019-01-18T16:42:34.994Z,-3.10
2019-01-18T16:47:19.799Z,-3.20
2019-01-18T16:52:04.412Z,-3.30
2019-01-18T16:56:49.202Z,-3.20
2019-01-18T17:01:33.721Z,-3.20
2019-01-18T17:06:18.260Z,-3.30
2019-01-18T17:11:03.901Z,-3.30
2019-01-18T17:15:49.574Z,-3.30
2019-01-18T17:20:36.220Z,-3.30
2019-01-18T17:25:20.799Z,-3.40
2019-01-18T17:30:06.847Z,-3.40
2019-01-18T17:34:51.392Z,-3.40
2019-01-18T17:40:12.205Z,-3.40
2019-01-18T17:45:33.799Z,-3.40
2019-01-18T17:50:59.713Z,-3.40
2019-01-18T17:56:21.127Z,-3.40
2019-01-18T18:01:42.430Z,-3.30
2019-01-18T18:06:53.613Z,-3.40
2019-01-18T18:12:07.468Z,-3.50
2019-01-18T18:17:26.358Z,-3.40
2019-01-18T18:22:52.643Z,-3.40
2019-01-18T18:28:21.388Z,-3.50
2019-01-18T18:33:35.262Z,-3.50
2019-01-18T18:39:02.953Z,-3.50
2019-01-18T18:44:21.925Z,-3.40
2019-01-18T18:49:16.651Z,-3.40
2019-01-18T18:54:33.520Z,-3.40
2019-01-18T18:59:43.204Z,-3.40
2019-01-18T19:05:20.400Z,-3.30
2019-01-18T19:10:55.094Z,-3.40
2019-01-18T19:16:22.295Z,-3.40
2019-01-18T19:21:44.680Z,-3.40
2019-01-18T19:27:05.524Z,-3.30
2019-01-18T19:32:10.114Z,-3.20
2019-01-18T19:37:31.348Z,-3.40
2019-01-18T19:42:52.648Z,-3.30
2019-01-18T19:48:10.439Z,-3.30
2019-01-18T19:53:33.617Z,-3.30
2019-01-18T19:59:10.895Z,-3.40
2019-01-18T20:04:23.985Z,-3.40
2019-01-18T20:09:38.903Z,-3.40
2019-01-18T20:14:55.587Z,-3.40
2019-01-18T20:20:13.762Z,-3.40
2019-01-18T20:25:18.915Z,-3.30
2019-01-18T20:30:48.092Z,-3.30
2019-01-18T20:35:59.485Z,-3.30
2019-01-18T20:41:31.167Z,-3.40
2019-01-18T20:47:02.797Z,-3.30
2019-01-18T20:52:14.991Z,-3.30
2019-01-18T20:57:22.924Z,-3.30
2019-01-18T21:02:38.171Z,-3.30
2019-01-18T21:07:29.827Z,-3.30
2019-01-18T21:12:35.639Z,-3.40
2019-01-18T21:18:09.461Z,-3.30
2019-01-18T21:23:07.153Z,-3.20
2019-01-18T21:28:31.389Z,-3.20
2019-01-18T21:33:32.770Z,-3.10
2019-01-18T21:38:50.973Z,-3.20
2019-01-18T21:44:12.277Z,-3.20
2019-01-18T21:49:22.961Z,-3.20
2019-01-18T21:54:42.872Z,-3.30
2019-01-18T22:00:02.569Z,-3.30
2019-01-18T22:05:35.630Z,-3.40
2019-01-18T22:10:31.373Z,-3.50
2019-01-18T22:15:37.184Z,-3.40
2019-01-18T22:20:47.879Z,-3.40
2019-01-18T22:25:55.008Z,-3.50
2019-01-18T22:31:35.069Z,-3.50
2019-01-18T22:36:54.603Z,-3.50
2019-01-18T22:42:34.002Z,-3.60
2019-01-18T22:48:02.640Z,-3.40
2019-01-18T22:53:25.964Z,-3.50
2019-01-18T22:59:00.244Z,-3.50
2019-01-18T23:04:06.364Z,-3.50
2019-01-18T23:09:25.347Z,-3.40
2019-01-18T23:14:49.037Z,-3.50
2019-01-18T23:20:07.545Z,-3.50
2019-01-18T23:25:05.398Z,-3.70
2019-01-18T23:30:11.535Z,-3.60
2019-01-18T23:35:03.024Z,-3.60
2019-01-18T23:40:12.700Z,-3.70
2019-01-18T23:45:35.809Z,-3.70
2019-01-18T23:50:46.471Z,-3.80
2019-01-18T23:55:43.695Z,-3.80
